createdAt,value
2019-04-11T00:02:14.816Z,100787.20
2019-04-11T00:04:44.190Z,100793.73
2019-04-11T00:07:14.239Z,100793.73
2019-04-11T00:09:43.490Z,100796.41
2019-04-11T00:12:12.660Z,100789.39
2019-04-11T00:14:42.164Z,100789.87
2019-04-11T00:17:11.941Z,100789.59
2019-04-11T00:19:41.147Z,100782.22
2019-04-11T00:22:11.092Z,100793.55
2019-04-11T00:24:40.369Z,100794.20
2019-04-11T00:27:09.513Z,100793.50
2019-04-11T00:29:38.723Z,100795.60
2019-04-11T00:32:09.300Z,100802.31
2019-04-11T00:34:39.351Z,100808.98
2019-04-11T00:37:08.697Z,100800.95
2019-04-11T00:39:37.763Z,100804.50
2019-04-11T00:42:06.867Z,100810.93
2019-04-11T00:44:36.017Z,100812.98
2019-04-11T00:47:05.123Z,100811.11
2019-04-11T00:49:34.647Z,100806.72
2019-04-11T00:52:04.552Z,100807.14
2019-04-11T00:54:33.777Z,100807.09
2019-04-11T00:57:02.951Z,100803.13
2019-04-11T00:59:32.242Z,100800.09
2019-04-11T01:02:01.458Z,100803.97
2019-04-11T01:04:30.672Z,100803.74
2019-04-11T01:07:00.700Z,100806.55
2019-04-11T01:09:30.573Z,100804.91
2019-04-11T01:12:00.480Z,100802.97
2019-04-11T01:14:29.975Z,100806.89
2019-04-11T01:16:59.114Z,100806.89
2019-04-11T01:19:28.991Z,100812.48
2019-04-11T01:21:59.479Z,100809.72
2019-04-11T01:24:28.710Z,100812.46
2019-04-11T01:26:57.840Z,100817.39
2019-04-11T01:29:27.329Z,100814.38
2019-04-11T01:32:02.233Z,100813.73
2019-04-11T01:34:31.385Z,100819.64
2019-04-11T01:37:01.598Z,100816.88
2019-04-11T01:39:41.636Z,100820.80
2019-04-11T01:42:11.145Z,100819.08
2019-04-11T01:44:41.014Z,100820.80
2019-04-11T01:47:12.935Z,100822.10
2019-04-11T01:49:42.081Z,100825.45
2019-04-11T01:52:11.917Z,100832.70
2019-04-11T01:54:41.207Z,100828.31
2019-04-11T01:57:10.313Z,100838.73
2019-04-11T01:59:39.659Z,100829.97
2019-04-11T02:02:46.485Z,100827.41
2019-04-11T02:05:27.547Z,100830.86
2019-04-11T02:07:56.671Z,100829.45
2019-04-11T02:10:26.565Z,100833.20
2019-04-11T02:12:57.454Z,100837.91
2019-04-11T02:15:28.260Z,100796.19
2019-04-11T02:17:57.397Z,100836.91
2019-04-11T02:20:27.159Z,100838.11
2019-04-11T02:23:07.775Z,100840.70
2019-04-11T02:25:45.286Z,100840.70
2019-04-11T02:28:16.825Z,100850.72
2019-04-11T02:30:48.783Z,100845.09
2019-04-11T02:33:18.452Z,100847.30
2019-04-11T02:35:49.376Z,100855.59
2019-04-11T02:38:19.097Z,100852.51
2019-04-11T02:40:49.852Z,100858.56
2019-04-11T02:43:20.420Z,100853.33
2019-04-11T02:45:58.220Z,100859.40
2019-04-11T02:48:20.873Z,100852.44
2019-04-11T02:50:50.915Z,100859.32
2019-04-11T02:53:21.276Z,100857.91
2019-04-11T02:55:53.903Z,100862.66
2019-04-11T02:58:24.940Z,100864.84
2019-04-11T03:00:55.936Z,100864.84
2019-04-11T03:03:25.283Z,100866.16
2019-04-11T03:05:55.880Z,100865.32
2019-04-11T03:08:26.996Z,100864.44
2019-04-11T03:10:57.582Z,100869.18
2019-04-11T03:13:27.285Z,100868.70
2019-04-11T03:16:10.163Z,100880.92
2019-04-11T03:18:46.058Z,100875.70
2019-04-11T03:21:05.693Z,100867.87
2019-04-11T03:23:30.919Z,100876.89
2019-04-11T03:26:00.709Z,100874.23
2019-04-11T03:28:31.447Z,100876.73
2019-04-11T03:31:33.076Z,100877.03
2019-04-11T03:38:56.983Z,100878.73
2019-04-11T03:41:23.507Z,100878.73
2019-04-11T03:43:48.578Z,100881.29
2019-04-11T03:46:25.050Z,100875.96
2019-04-11T03:48:51.118Z,100881.90
2019-04-11T03:51:11.061Z,100881.84
2019-04-11T03:53:41.120Z,100882.20
2019-04-11T03:56:12.115Z,100886.89
2019-04-11T03:58:42.301Z,100889.33
2019-04-11T04:01:14.049Z,100892.21
2019-04-11T04:03:44.687Z,100893.40
2019-04-11T04:06:14.839Z,100895.89
2019-04-11T04:08:44.512Z,100902.82
2019-04-11T04:11:19.073Z,100903.71
2019-04-11T04:14:08.000Z,100905.38
2019-04-11T04:16:48.266Z,100911.06
2019-04-11T04:19:30.682Z,100915.45
2019-04-11T04:22:13.472Z,100916.75
2019-04-11T04:24:44.779Z,100912.78
2019-04-11T04:27:15.438Z,100921.84
2019-04-11T04:29:49.018Z,100924.27
2019-04-11T04:32:16.334Z,100928.52
2019-04-11T04:34:46.420Z,100931.41
2019-04-11T04:37:18.135Z,100818.11
2019-04-11T04:39:47.984Z,100936.51
2019-04-11T04:42:24.903Z,100937.81
2019-04-11T04:44:49.320Z,100941.89
2019-04-11T04:47:25.044Z,100939.17
2019-04-11T04:49:52.151Z,100944.44
2019-04-11T04:52:21.453Z,100943.73
2019-04-11T04:54:52.706Z,100954.09
2019-04-11T04:57:21.843Z,100952.44
2019-04-11T04:59:50.991Z,100956.70
2019-04-11T05:02:20.698Z,100956.64
2019-04-11T05:04:50.036Z,100959.66
2019-04-11T05:07:19.497Z,100958.98
2019-04-11T05:09:50.138Z,100968.92
2019-04-11T05:12:20.614Z,100965.91
2019-04-11T05:14:49.980Z,100963.77
2019-04-11T05:17:19.502Z,100966.94
2019-04-11T05:19:48.829Z,100969.37
2019-04-11T05:22:19.000Z,100966.42
2019-04-11T05:24:48.128Z,100970.09
2019-04-11T05:27:17.542Z,100975.42
2019-04-11T05:29:46.644Z,100975.58
2019-04-11T05:32:15.773Z,100973.50
2019-04-11T05:34:45.639Z,100978.84
2019-04-11T05:37:15.336Z,100981.20
2019-04-11T05:39:44.974Z,100989.20
2019-04-11T05:42:17.758Z,100989.41
2019-04-11T05:44:45.177Z,100990.13
2019-04-11T05:47:18.173Z,100990.77
2019-04-11T05:49:56.872Z,100999.56
2019-04-11T05:52:27.403Z,100995.36
2019-04-11T05:55:00.711Z,100993.92
2019-04-11T05:57:35.201Z,100995.93
2019-04-11T06:00:00.912Z,100953.56
2019-04-11T06:02:39.572Z,101002.29
2019-04-11T06:05:24.535Z,100999.84
2019-04-11T06:07:59.923Z,100999.27
2019-04-11T06:10:33.809Z,101001.48
2019-04-11T06:13:28.784Z,101001.00
2019-04-11T06:16:02.341Z,101010.63
2019-04-11T06:18:52.147Z,101009.66
2019-04-11T06:21:31.746Z,101012.38
2019-04-11T06:24:25.998Z,101018.94
2019-04-11T06:27:15.400Z,101023.59
2019-04-11T06:30:10.100Z,101019.77
2019-04-11T06:32:56.800Z,101026.72
2019-04-11T06:35:32.399Z,101026.33
2019-04-11T06:38:24.670Z,101030.08
2019-04-11T06:41:02.128Z,101026.78
2019-04-11T06:43:43.031Z,101029.03
2019-04-11T06:46:26.105Z,101020.81
2019-04-11T06:49:03.052Z,101029.21
2019-04-11T06:51:37.817Z,101029.21
2019-04-11T06:54:17.501Z,101037.41
2019-04-11T06:56:48.138Z,101035.91
2019-04-11T06:59:20.720Z,101038.48
2019-04-11T07:01:50.865Z,101034.41
2019-04-11T07:04:23.704Z,101033.91
2019-04-11T07:06:54.430Z,101037.82
2019-04-11T07:09:51.366Z,101037.36
2019-04-11T07:12:45.466Z,101041.64
2019-04-11T07:15:52.840Z,101045.39
2019-04-11T07:18:48.414Z,101041.70
2019-04-11T07:21:17.638Z,101040.94
2019-04-11T07:24:05.351Z,101044.59
2019-04-11T07:26:47.840Z,101042.27
2019-04-11T07:29:34.568Z,101039.72
2019-04-11T07:32:29.918Z,101039.08
2019-04-11T07:35:17.248Z,101026.20
2019-04-11T07:37:53.172Z,101029.78
2019-04-11T07:40:56.407Z,101022.86
2019-04-11T07:43:29.212Z,101025.03
2019-04-11T07:46:25.061Z,101032.17
2019-04-11T07:49:08.229Z,101024.97
2019-04-11T07:51:41.349Z,101026.91
2019-04-11T07:54:18.228Z,101032.55
2019-04-11T07:57:06.431Z,101035.56
2019-04-11T08:00:00.458Z,101034.41
2019-04-11T08:02:48.535Z,101030.37
2019-04-11T08:05:51.807Z,101039.86
2019-04-11T08:08:45.413Z,101042.67
2019-04-11T08:11:25.615Z,101041.09
2019-04-11T08:14:28.755Z,101045.77
2019-04-11T08:17:07.134Z,101050.98
2019-04-11T08:19:53.807Z,101048.97
2019-04-11T08:22:45.319Z,101053.23
2019-04-11T08:25:33.472Z,101051.98
2019-04-11T08:28:07.833Z,101050.05
2019-04-11T08:30:55.210Z,101043.33
2019-04-11T08:33:24.927Z,101051.63
2019-04-11T08:36:13.795Z,101055.25
2019-04-11T08:38:42.851Z,101059.28
2019-04-11T08:41:34.025Z,101058.08
2019-04-11T08:44:34.346Z,101063.92
2019-04-11T08:47:07.907Z,101055.88
2019-04-11T08:49:50.138Z,101059.31
2019-04-11T08:52:50.317Z,101062.34
2019-04-11T08:55:43.034Z,101058.42
2019-04-11T08:58:09.571Z,101063.61
2019-04-11T09:00:51.200Z,101056.66
2019-04-11T09:03:42.461Z,101054.81
2019-04-11T09:06:14.713Z,101060.72
2019-04-11T09:09:11.194Z,101058.62
2019-04-11T09:11:47.004Z,101059.20
2019-04-11T09:14:41.324Z,101056.53
2019-04-11T09:17:12.941Z,101058.97
2019-04-11T09:20:16.388Z,101057.75
2019-04-11T09:22:50.367Z,101053.11
2019-04-11T09:25:37.118Z,101051.39
2019-04-11T09:28:25.331Z,101056.86
2019-04-11T09:31:17.053Z,101058.08
2019-04-11T09:34:04.007Z,101051.59
2019-04-11T09:36:51.355Z,101050.27
2019-04-11T09:39:45.642Z,101049.58
2019-04-11T09:42:32.520Z,101040.19
2019-04-11T09:45:19.660Z,101049.31
2019-04-11T09:48:12.480Z,101045.43
2019-04-11T09:50:59.363Z,101046.30
2019-04-11T09:53:30.272Z,101051.28
2019-04-11T09:56:21.443Z,101048.69
2019-04-11T09:58:51.895Z,101052.23
2019-04-11T10:01:38.754Z,101045.25
2019-04-11T10:04:08.871Z,101041.75
2019-04-11T10:07:06.036Z,101041.30
2019-04-11T10:10:00.299Z,100880.63
2019-04-11T10:12:46.817Z,101049.49
2019-04-11T10:15:18.868Z,101050.38
2019-04-11T10:18:05.447Z,101056.43
2019-04-11T10:20:35.067Z,101053.27
2019-04-11T10:23:22.917Z,101055.38
2019-04-11T10:25:56.007Z,101059.38
2019-04-11T10:29:00.243Z,101061.22
2019-04-11T10:31:30.965Z,101062.11
2019-04-11T10:34:21.685Z,101052.45
2019-04-11T10:36:56.888Z,101052.06
2019-04-11T10:39:54.030Z,100984.07
2019-04-11T10:42:26.307Z,101057.37
2019-04-11T10:45:31.034Z,101058.16
2019-04-11T10:48:05.471Z,101061.59
2019-04-11T10:51:02.894Z,101064.60
2019-04-11T10:53:33.285Z,101060.14
2019-04-11T10:56:30.630Z,101072.32
2019-04-11T10:59:01.708Z,101078.36
2019-04-11T11:01:50.629Z,101065.10
2019-04-11T11:04:48.501Z,101064.63
2019-04-11T11:07:24.393Z,101064.23
2019-04-11T11:10:09.220Z,101066.94
2019-04-11T11:12:49.753Z,101070.52
2019-04-11T11:15:41.880Z,101073.11
2019-04-11T11:19:03.266Z,101074.69
2019-04-11T11:21:00.843Z,101083.43
2019-04-11T11:24:00.693Z,101086.48
2019-04-11T11:26:38.894Z,101080.69
2019-04-11T11:29:45.481Z,101086.33
2019-04-11T11:32:31.845Z,101089.00
2019-04-11T11:35:22.430Z,101097.80
2019-04-11T11:38:01.830Z,101095.61
2019-04-11T11:40:58.865Z,101101.41
2019-04-11T11:43:33.081Z,101097.39
2019-04-11T11:46:25.615Z,101096.78
2019-04-11T11:49:12.307Z,101094.07
2019-04-11T11:52:06.774Z,101098.89
2019-04-11T11:54:37.803Z,101094.48
2019-04-11T11:57:14.977Z,101094.97
2019-04-11T11:59:46.256Z,101100.81
2019-04-11T12:02:21.503Z,101100.84
2019-04-11T12:05:15.845Z,101096.82
2019-04-11T12:07:51.453Z,101096.73
2019-04-11T12:10:45.882Z,101095.54
2019-04-11T12:13:40.232Z,101094.58
2019-04-11T12:16:21.883Z,101093.83
2019-04-11T12:19:02.696Z,101095.16
2019-04-11T12:21:33.268Z,101097.39
2019-04-11T12:24:30.503Z,101096.41
2019-04-11T12:27:18.606Z,101093.34
2019-04-11T12:30:07.917Z,101095.99
2019-04-11T12:32:41.059Z,101100.33
2019-04-11T12:35:30.648Z,101096.69
2019-04-11T12:38:05.384Z,101101.43
2019-04-11T12:40:51.667Z,101104.58
2019-04-11T12:43:20.827Z,101101.16
2019-04-11T12:46:07.417Z,101102.57
2019-04-11T12:48:43.239Z,101104.39
2019-04-11T12:51:37.565Z,101102.21
2019-04-11T12:54:16.549Z,101108.02
2019-04-11T12:57:22.893Z,101100.58
2019-04-11T12:59:58.258Z,101092.28
2019-04-11T13:02:46.342Z,101083.05
2019-04-11T13:05:16.820Z,101091.20
2019-04-11T13:08:14.013Z,101091.15
2019-04-11T13:10:43.231Z,101090.28
2019-04-11T13:13:29.523Z,101085.06
2019-04-11T13:16:11.970Z,101093.46
2019-04-11T13:18:59.813Z,101094.81
2019-04-11T13:21:33.883Z,101092.70
2019-04-11T13:24:20.775Z,101092.63
2019-04-11T13:27:08.920Z,101089.96
2019-04-11T13:30:03.175Z,101091.71
2019-04-11T13:32:50.272Z,101094.33
2019-04-11T13:35:36.413Z,101091.30
2019-04-11T13:38:10.775Z,101085.02
2019-04-11T13:41:01.717Z,101093.16
2019-04-11T13:43:45.521Z,101092.10
2019-04-11T13:46:33.646Z,101086.27
2019-04-11T13:49:21.741Z,101091.11
2019-04-11T13:52:18.868Z,101087.52
2019-04-11T13:55:10.132Z,101089.74
2019-04-11T13:57:58.253Z,101091.23
2019-04-11T14:00:42.080Z,101090.03
2019-04-11T14:03:42.245Z,101087.06
2019-04-11T14:06:30.755Z,101085.89
2019-04-11T14:09:24.974Z,101084.47
2019-04-11T14:11:58.918Z,101082.66
2019-04-11T14:14:38.991Z,101074.33
2019-04-11T14:17:27.104Z,101076.17
2019-04-11T14:20:13.930Z,101073.63
2019-04-11T14:23:15.001Z,101072.25
2019-04-11T14:26:15.891Z,101076.52
2019-04-11T14:28:48.256Z,101078.15
2019-04-11T14:31:29.528Z,101073.81
2019-04-11T14:34:04.493Z,101080.45
2019-04-11T14:37:01.432Z,101070.79
2019-04-11T14:39:33.564Z,101080.09
2019-04-11T14:42:20.616Z,101074.29
2019-04-11T14:44:50.226Z,101072.97
2019-04-11T14:47:44.495Z,101069.84
2019-04-11T14:50:13.734Z,101070.26
2019-04-11T14:52:59.758Z,101073.31
2019-04-11T14:55:28.890Z,101073.31
2019-04-11T14:58:15.479Z,101070.22
2019-04-11T15:00:44.604Z,101067.60
2019-04-11T15:03:32.684Z,101070.61
2019-04-11T15:06:31.396Z,101060.89
2019-04-11T15:09:34.650Z,101061.24
2019-04-11T15:12:10.590Z,101061.89
2019-04-11T15:15:13.709Z,101067.13
2019-04-11T15:17:42.848Z,101063.03
2019-04-11T15:20:34.781Z,101065.20
2019-04-11T15:23:14.160Z,101066.09
2019-04-11T15:26:08.865Z,101064.66
2019-04-11T15:29:13.829Z,101065.02
2019-04-11T15:32:09.411Z,101061.98
2019-04-11T15:34:53.140Z,101062.81
2019-04-11T15:37:47.580Z,101063.64
2019-04-11T15:40:34.271Z,101060.94
2019-04-11T15:43:22.370Z,101065.34
2019-04-11T15:46:05.920Z,101067.95
2019-04-11T15:48:57.234Z,101064.84
2019-04-11T15:51:35.156Z,101064.37
2019-04-11T15:54:26.778Z,101061.64
2019-04-11T15:57:16.690Z,101065.95
2019-04-11T16:00:02.007Z,101066.38
2019-04-11T16:02:52.970Z,101066.41
2019-04-11T16:05:50.011Z,101065.44
2019-04-11T16:08:44.651Z,101067.94
2019-04-11T16:11:51.605Z,101063.99
2019-04-11T16:14:24.308Z,101067.89
2019-04-11T16:17:13.829Z,101079.41
2019-04-11T16:19:57.485Z,101085.81
2019-04-11T16:22:44.529Z,101082.70
2019-04-11T16:25:29.203Z,101085.65
2019-04-11T16:28:16.417Z,101083.02
2019-04-11T16:30:53.753Z,101080.72
2019-04-11T16:33:40.589Z,101085.01
2019-04-11T16:36:35.165Z,101076.60
2019-04-11T16:39:25.089Z,101083.20
2019-04-11T16:42:07.837Z,101079.69
2019-04-11T16:44:55.714Z,101079.69
2019-04-11T16:47:44.025Z,101086.33
2019-04-11T16:50:13.179Z,101088.50
2019-04-11T16:52:42.323Z,101095.99
2019-04-11T16:55:11.459Z,101094.16
2019-04-11T16:57:43.834Z,101098.99
2019-04-11T17:00:13.189Z,101102.97
2019-04-11T17:02:42.355Z,101106.95
2019-04-11T17:05:11.483Z,101103.42
2019-04-11T17:07:59.783Z,101102.97
2019-04-11T17:10:46.487Z,101102.51
2019-04-11T17:13:15.691Z,101107.83
2019-04-11T17:15:44.883Z,101110.20
2019-04-11T17:18:14.001Z,101104.31
2019-04-11T17:20:43.141Z,101111.25
2019-04-11T17:23:12.296Z,101115.13
2019-04-11T17:25:41.438Z,101113.30
2019-04-11T17:28:10.613Z,101114.16
2019-04-11T17:30:39.820Z,101115.37
2019-04-11T17:33:08.973Z,101116.27
2019-04-11T17:35:38.188Z,101115.28
2019-04-11T17:38:08.096Z,101122.77
2019-04-11T17:40:39.501Z,101120.05
2019-04-11T17:43:08.284Z,101125.22
2019-04-11T17:45:37.516Z,101124.78
2019-04-11T17:48:06.677Z,101125.58
2019-04-11T17:50:35.955Z,101126.92
2019-04-11T17:53:05.077Z,101131.72
2019-04-11T17:55:34.241Z,101136.55
2019-04-11T17:58:03.373Z,101137.86
2019-04-11T18:00:36.102Z,101136.02
2019-04-11T18:03:05.512Z,101139.54
2019-04-11T18:05:34.646Z,101136.74
2019-04-11T18:08:03.893Z,101137.98
2019-04-11T18:10:33.011Z,101144.49
2019-04-11T18:13:02.193Z,101151.48
2019-04-11T18:15:31.843Z,101150.11
2019-04-11T18:18:03.154Z,101144.92
2019-04-11T18:20:31.895Z,101144.32
2019-04-11T18:23:01.050Z,101152.13
2019-04-11T18:25:30.182Z,101153.84
2019-04-11T18:27:59.367Z,101153.34
2019-04-11T18:30:28.541Z,101158.17
2019-04-11T18:32:57.688Z,101159.48
2019-04-11T18:35:26.830Z,101155.58
2019-04-11T18:37:55.941Z,101152.09
2019-04-11T18:40:25.284Z,101161.33
2019-04-11T18:42:54.426Z,101163.03
2019-04-11T18:45:23.556Z,101165.16
2019-04-11T18:47:52.685Z,101163.84
2019-04-11T18:50:23.033Z,101165.98
2019-04-11T18:52:52.642Z,101169.84
2019-04-11T18:55:21.770Z,101175.87
2019-04-11T18:57:50.928Z,101173.64
2019-04-11T19:00:21.077Z,101177.72
2019-04-11T19:02:50.225Z,101178.00
2019-04-11T19:05:28.674Z,101172.29
2019-04-11T19:07:50.372Z,101183.58
2019-04-11T19:10:20.210Z,101178.36
2019-04-11T19:12:49.333Z,101184.30
2019-04-11T19:15:18.553Z,101186.05
2019-04-11T19:17:47.708Z,101181.06
2019-04-11T19:20:19.152Z,101187.09
2019-04-11T19:22:49.026Z,101190.95
2019-04-11T19:25:18.183Z,101193.53
2019-04-11T19:27:50.448Z,101191.76
2019-04-11T19:30:18.313Z,101189.52
2019-04-11T19:32:47.461Z,101191.59
2019-04-11T19:35:16.638Z,101195.08
2019-04-11T19:37:45.767Z,101200.70
2019-04-11T19:40:16.419Z,101198.08
2019-04-11T19:42:48.879Z,101205.06
2019-04-11T19:45:16.926Z,101201.64
2019-04-11T19:47:51.454Z,101192.06
2019-04-11T19:50:18.445Z,101201.25
2019-04-11T19:52:47.579Z,101199.44
2019-04-11T19:55:34.686Z,101201.94
2019-04-11T19:58:04.073Z,101203.64
2019-04-11T20:00:33.733Z,101201.44
2019-04-11T20:03:02.842Z,101200.50
2019-04-11T20:05:32.297Z,101203.05
2019-04-11T20:08:01.396Z,101212.70
2019-04-11T20:10:31.346Z,101213.63
2019-04-11T20:13:01.902Z,101204.91
2019-04-11T20:15:36.864Z,101205.80
2019-04-11T20:18:02.325Z,101211.89
2019-04-11T20:20:31.439Z,101208.38
2019-04-11T20:23:00.583Z,101209.81
2019-04-11T20:25:29.713Z,101205.80
2019-04-11T20:27:58.981Z,101205.76
2019-04-11T20:30:28.123Z,101201.39
2019-04-11T20:32:57.281Z,101205.34
2019-04-11T20:35:29.193Z,101202.70
2019-04-11T20:37:57.363Z,101202.58
2019-04-11T20:40:26.463Z,101202.50
2019-04-11T20:42:55.596Z,101204.66
2019-04-11T20:45:28.481Z,101199.80
2019-04-11T20:47:59.858Z,101203.73
2019-04-11T20:50:28.151Z,101205.89
2019-04-11T20:53:00.449Z,101205.47
2019-04-11T20:55:28.306Z,101204.83
2019-04-11T20:57:57.465Z,101206.05
2019-04-11T21:00:26.580Z,101208.81
2019-04-11T21:02:58.141Z,101203.43
2019-04-11T21:05:30.490Z,101205.72
2019-04-11T21:07:57.587Z,101207.70
2019-04-11T21:10:26.732Z,101206.36
2019-04-11T21:12:55.855Z,101213.76
2019-04-11T21:15:24.995Z,101211.56
2019-04-11T21:17:56.067Z,101211.14
2019-04-11T21:20:25.089Z,101206.78
2019-04-11T21:22:54.544Z,101209.87
2019-04-11T21:25:26.099Z,100956.14
2019-04-11T21:27:56.751Z,101216.37
2019-04-11T21:30:25.519Z,101086.33
2019-04-11T21:32:54.663Z,101211.30
2019-04-11T21:35:23.789Z,101209.99
2019-04-11T21:37:52.907Z,101211.81
2019-04-11T21:40:22.039Z,101213.97
2019-04-11T21:42:51.166Z,101204.23
2019-04-11T21:45:20.357Z,101214.20
2019-04-11T21:47:49.510Z,101216.83
2019-04-11T21:50:18.659Z,101212.98
2019-04-11T21:52:47.820Z,101216.07
2019-04-11T21:55:16.948Z,101221.32
2019-04-11T21:57:48.890Z,101223.48
2019-04-11T22:00:23.540Z,101223.01
2019-04-11T22:02:54.496Z,101223.48
2019-04-11T22:05:23.704Z,101226.01
2019-04-11T22:07:52.883Z,101226.77
2019-04-11T22:10:22.014Z,101226.86
2019-04-11T22:12:51.165Z,101221.87
2019-04-11T22:15:20.310Z,101220.37
2019-04-11T22:17:49.419Z,101219.95
2019-04-11T22:20:18.583Z,101220.37
2019-04-11T22:22:47.721Z,101213.83
2019-04-11T22:25:16.868Z,101222.58
2019-04-11T22:27:46.028Z,101222.10
2019-04-11T22:30:17.820Z,101219.91
2019-04-11T22:32:52.347Z,101218.27
2019-04-11T22:35:21.495Z,101223.41
2019-04-11T22:37:50.612Z,101230.39
2019-04-11T22:40:19.719Z,101224.22
2019-04-11T22:42:48.889Z,101222.48
2019-04-11T22:45:18.056Z,101222.10
2019-04-11T22:47:47.215Z,101228.19
2019-04-11T22:50:16.353Z,101225.05
2019-04-11T22:52:45.906Z,101226.75
2019-04-11T22:55:15.066Z,101225.02
2019-04-11T22:57:44.366Z,101224.92
2019-04-11T23:00:15.327Z,101227.97
2019-04-11T23:03:04.204Z,101226.28
2019-04-11T23:05:33.380Z,101223.09
2019-04-11T23:08:02.915Z,101224.83
2019-04-11T23:10:32.172Z,101228.72
2019-04-11T23:13:01.304Z,101226.61
2019-04-11T23:15:30.455Z,101229.61
2019-04-11T23:17:59.582Z,101085.00
2019-04-11T23:20:28.735Z,101225.12
2019-04-11T23:22:58.024Z,101228.16
2019-04-11T23:25:27.164Z,101229.94
2019-04-11T23:27:56.280Z,101223.80
2019-04-11T23:30:25.456Z,101222.88
2019-04-11T23:32:54.586Z,101218.88
2019-04-11T23:35:23.725Z,101231.56
2019-04-11T23:37:52.861Z,101229.32
2019-04-11T23:40:22.639Z,101227.17
2019-04-11T23:42:51.834Z,101227.59
2019-04-11T23:45:24.199Z,101227.08
2019-04-11T23:47:54.309Z,101230.54
2019-04-11T23:50:25.281Z,101223.56
2019-04-11T23:52:56.997Z,101227.03
2019-04-11T23:55:25.244Z,101226.66
2019-04-11T23:57:54.343Z,101230.50
